sensor_id;sensor_type;location;lat;lon;timestamp;P1;durP1;ratioP1;P2;durP2;ratioP2
55090;SDS011;40985;53.180;5.800;2024-01-11T00:01:59;29.98;;;19.50;;
55090;SDS011;40985;53.180;5.800;2024-01-11T00:04:25;34.35;;;20.52;;
55090;SDS011;40985;53.180;5.800;2024-01-11T00:06:51;31.30;;;20.02;;
55090;SDS011;40985;53.180;5.800;2024-01-11T00:09:17;34.20;;;21.13;;
55090;SDS011;40985;53.180;5.800;2024-01-11T00:11:43;33.88;;;21.00;;
55090;SDS011;40985;53.180;5.800;2024-01-11T00:14:08;33.45;;;20.98;;
55090;SDS011;40985;53.180;5.800;2024-01-11T00:16:34;33.22;;;21.25;;
55090;SDS011;40985;53.180;5.800;2024-01-11T00:19:00;31.38;;;20.27;;
55090;SDS011;40985;53.180;5.800;2024-01-11T00:21:25;32.35;;;20.77;;
55090;SDS011;40985;53.180;5.800;2024-01-11T00:23:51;35.20;;;20.80;;
55090;SDS011;40985;53.180;5.800;2024-01-11T00:26:17;36.20;;;21.73;;
55090;SDS011;40985;53.180;5.800;2024-01-11T00:28:42;34.45;;;22.23;;
55090;SDS011;40985;53.180;5.800;2024-01-11T00:31:08;36.50;;;23.17;;
55090;SDS011;40985;53.180;5.800;2024-01-11T00:33:34;38.78;;;23.17;;
55090;SDS011;40985;53.180;5.800;2024-01-11T00:35:59;38.00;;;22.98;;
55090;SDS011;40985;53.180;5.800;2024-01-11T00:38:25;37.58;;;23.42;;
55090;SDS011;40985;53.180;5.800;2024-01-11T00:40:51;36.50;;;22.92;;
55090;SDS011;40985;53.180;5.800;2024-01-11T00:43:16;35.15;;;22.45;;
55090;SDS011;40985;53.180;5.800;2024-01-11T00:45:43;36.05;;;22.45;;
55090;SDS011;40985;53.180;5.800;2024-01-11T00:48:11;35.42;;;22.15;;
55090;SDS011;40985;53.180;5.800;2024-01-11T00:50:37;39.30;;;23.08;;
55090;SDS011;40985;53.180;5.800;2024-01-11T00:53:02;37.55;;;23.85;;
55090;SDS011;40985;53.180;5.800;2024-01-11T00:55:29;39.20;;;24.77;;
55090;SDS011;40985;53.180;5.800;2024-01-11T00:57:54;42.63;;;25.00;;
55090;SDS011;40985;53.180;5.800;2024-01-11T01:00:20;38.80;;;24.38;;
55090;SDS011;40985;53.180;5.800;2024-01-11T01:02:46;40.03;;;25.20;;
55090;SDS011;40985;53.180;5.800;2024-01-11T01:05:12;40.70;;;24.88;;
55090;SDS011;40985;53.180;5.800;2024-01-11T01:07:38;42.65;;;26.25;;
55090;SDS011;40985;53.180;5.800;2024-01-11T01:10:03;44.03;;;25.80;;
55090;SDS011;40985;53.180;5.800;2024-01-11T01:12:29;42.03;;;25.70;;
55090;SDS011;40985;53.180;5.800;2024-01-11T01:14:55;43.90;;;25.45;;
55090;SDS011;40985;53.180;5.800;2024-01-11T01:17:24;44.42;;;26.42;;
55090;SDS011;40985;53.180;5.800;2024-01-11T01:19:49;40.05;;;24.75;;
55090;SDS011;40985;53.180;5.800;2024-01-11T01:22:15;43.70;;;25.65;;
55090;SDS011;40985;53.180;5.800;2024-01-11T01:24:41;40.35;;;24.52;;
55090;SDS011;40985;53.180;5.800;2024-01-11T01:27:06;42.67;;;25.15;;
55090;SDS011;40985;53.180;5.800;2024-01-11T01:29:32;41.42;;;25.75;;
55090;SDS011;40985;53.180;5.800;2024-01-11T01:31:57;43.97;;;26.55;;
55090;SDS011;40985;53.180;5.800;2024-01-11T01:34:23;42.30;;;25.25;;
55090;SDS011;40985;53.180;5.800;2024-01-11T01:36:49;43.30;;;26.25;;
55090;SDS011;40985;53.180;5.800;2024-01-11T01:39:15;43.63;;;26.13;;
55090;SDS011;40985;53.180;5.800;2024-01-11T01:41:40;44.17;;;27.05;;
55090;SDS011;40985;53.180;5.800;2024-01-11T01:44:06;45.40;;;26.65;;
55090;SDS011;40985;53.180;5.800;2024-01-11T01:46:32;46.58;;;27.80;;
55090;SDS011;40985;53.180;5.800;2024-01-11T01:48:59;46.90;;;27.27;;
55090;SDS011;40985;53.180;5.800;2024-01-11T01:51:26;49.30;;;28.17;;
55090;SDS011;40985;53.180;5.800;2024-01-11T01:53:56;46.90;;;28.67;;
55090;SDS011;40985;53.180;5.800;2024-01-11T01:56:22;48.53;;;27.98;;
55090;SDS011;40985;53.180;5.800;2024-01-11T01:58:48;51.13;;;28.80;;
55090;SDS011;40985;53.180;5.800;2024-01-11T02:01:16;46.00;;;26.98;;
55090;SDS011;40985;53.180;5.800;2024-01-11T02:03:44;47.20;;;28.60;;
55090;SDS011;40985;53.180;5.800;2024-01-11T02:06:11;52.33;;;29.65;;
55090;SDS011;40985;53.180;5.800;2024-01-11T02:08:40;45.72;;;27.52;;
55090;SDS011;40985;53.180;5.800;2024-01-11T02:11:08;55.15;;;29.80;;
55090;SDS011;40985;53.180;5.800;2024-01-11T02:13:36;52.45;;;28.85;;
55090;SDS011;40985;53.180;5.800;2024-01-11T02:16:02;51.90;;;28.52;;
55090;SDS011;40985;53.180;5.800;2024-01-11T02:18:28;46.65;;;27.15;;
55090;SDS011;40985;53.180;5.800;2024-01-11T02:20:53;52.10;;;30.08;;
55090;SDS011;40985;53.180;5.800;2024-01-11T02:23:21;50.72;;;30.05;;
55090;SDS011;40985;53.180;5.800;2024-01-11T02:25:49;49.80;;;28.90;;
55090;SDS011;40985;53.180;5.800;2024-01-11T02:28:15;51.42;;;29.45;;
55090;SDS011;40985;53.180;5.800;2024-01-11T02:30:40;49.08;;;28.10;;
55090;SDS011;40985;53.180;5.800;2024-01-11T02:33:07;49.33;;;29.35;;
55090;SDS011;40985;53.180;5.800;2024-01-11T02:35:34;54.92;;;29.40;;
55090;SDS011;40985;53.180;5.800;2024-01-11T02:38:03;49.35;;;29.52;;
55090;SDS011;40985;53.180;5.800;2024-01-11T02:40:31;52.13;;;29.95;;
55090;SDS011;40985;53.180;5.800;2024-01-11T02:42:57;52.45;;;30.02;;
55090;SDS011;40985;53.180;5.800;2024-01-11T02:45:23;48.35;;;28.85;;
55090;SDS011;40985;53.180;5.800;2024-01-11T02:47:49;56.20;;;31.80;;
55090;SDS011;40985;53.180;5.800;2024-01-11T02:50:14;58.92;;;30.75;;
55090;SDS011;40985;53.180;5.800;2024-01-11T02:52:40;51.80;;;28.90;;
55090;SDS011;40985;53.180;5.800;2024-01-11T02:55:06;53.40;;;29.77;;
55090;SDS011;40985;53.180;5.800;2024-01-11T02:57:32;52.60;;;28.67;;
55090;SDS011;40985;53.180;5.800;2024-01-11T02:59:57;48.53;;;28.15;;
55090;SDS011;40985;53.180;5.800;2024-01-11T03:02:23;49.58;;;29.17;;
55090;SDS011;40985;53.180;5.800;2024-01-11T03:04:49;47.95;;;28.00;;
55090;SDS011;40985;53.180;5.800;2024-01-11T03:07:15;46.35;;;28.02;;
55090;SDS011;40985;53.180;5.800;2024-01-11T03:09:40;46.88;;;27.17;;
55090;SDS011;40985;53.180;5.800;2024-01-11T03:12:06;49.40;;;26.70;;
55090;SDS011;40985;53.180;5.800;2024-01-11T03:14:32;47.70;;;28.27;;
55090;SDS011;40985;53.180;5.800;2024-01-11T03:16:58;51.40;;;28.30;;
55090;SDS011;40985;53.180;5.800;2024-01-11T03:19:24;51.28;;;28.75;;
55090;SDS011;40985;53.180;5.800;2024-01-11T03:21:49;42.95;;;26.10;;
55090;SDS011;40985;53.180;5.800;2024-01-11T03:24:15;50.35;;;28.13;;
55090;SDS011;40985;53.180;5.800;2024-01-11T03:26:41;50.10;;;29.30;;
55090;SDS011;40985;53.180;5.800;2024-01-11T03:29:07;49.95;;;29.08;;
55090;SDS011;40985;53.180;5.800;2024-01-11T03:31:32;50.47;;;27.55;;
55090;SDS011;40985;53.180;5.800;2024-01-11T03:33:58;52.20;;;27.98;;
55090;SDS011;40985;53.180;5.800;2024-01-11T03:36:24;51.15;;;29.45;;
55090;SDS011;40985;53.180;5.800;2024-01-11T03:38:50;48.65;;;28.15;;
55090;SDS011;40985;53.180;5.800;2024-01-11T03:41:16;48.28;;;28.05;;
55090;SDS011;40985;53.180;5.800;2024-01-11T03:43:41;47.05;;;27.45;;
55090;SDS011;40985;53.180;5.800;2024-01-11T03:46:07;49.47;;;27.63;;
55090;SDS011;40985;53.180;5.800;2024-01-11T03:48:33;52.42;;;28.15;;
55090;SDS011;40985;53.180;5.800;2024-01-11T03:51:01;52.47;;;28.45;;
55090;SDS011;40985;53.180;5.800;2024-01-11T03:53:27;49.25;;;27.73;;
55090;SDS011;40985;53.180;5.800;2024-01-11T03:55:53;48.72;;;28.38;;
55090;SDS011;40985;53.180;5.800;2024-01-11T03:58:19;54.83;;;30.42;;
55090;SDS011;40985;53.180;5.800;2024-01-11T04:00:44;50.10;;;27.27;;
55090;SDS011;40985;53.180;5.800;2024-01-11T04:03:10;54.88;;;29.30;;
55090;SDS011;40985;53.180;5.800;2024-01-11T04:05:36;55.75;;;28.77;;
55090;SDS011;40985;53.180;5.800;2024-01-11T04:08:05;46.95;;;27.10;;
55090;SDS011;40985;53.180;5.800;2024-01-11T04:10:31;47.05;;;26.90;;
55090;SDS011;40985;53.180;5.800;2024-01-11T04:12:57;55.22;;;30.00;;
55090;SDS011;40985;53.180;5.800;2024-01-11T04:15:23;51.00;;;28.73;;
55090;SDS011;40985;53.180;5.800;2024-01-11T04:17:49;50.92;;;29.15;;
55090;SDS011;40985;53.180;5.800;2024-01-11T04:20:14;57.78;;;29.13;;
55090;SDS011;40985;53.180;5.800;2024-01-11T04:22:40;48.22;;;27.80;;
55090;SDS011;40985;53.180;5.800;2024-01-11T04:25:06;51.83;;;29.50;;
55090;SDS011;40985;53.180;5.800;2024-01-11T04:27:32;55.28;;;30.40;;
55090;SDS011;40985;53.180;5.800;2024-01-11T04:29:58;55.90;;;30.95;;
55090;SDS011;40985;53.180;5.800;2024-01-11T04:32:23;55.92;;;31.00;;
55090;SDS011;40985;53.180;5.800;2024-01-11T04:34:49;54.63;;;30.13;;
55090;SDS011;40985;53.180;5.800;2024-01-11T04:37:15;54.05;;;29.45;;
55090;SDS011;40985;53.180;5.800;2024-01-11T04:39:40;54.50;;;30.77;;
55090;SDS011;40985;53.180;5.800;2024-01-11T04:42:06;53.90;;;29.88;;
55090;SDS011;40985;53.180;5.800;2024-01-11T04:44:32;56.03;;;30.50;;
55090;SDS011;40985;53.180;5.800;2024-01-11T04:46:57;54.35;;;30.67;;
55090;SDS011;40985;53.180;5.800;2024-01-11T04:49:23;55.75;;;30.48;;
55090;SDS011;40985;53.180;5.800;2024-01-11T04:51:49;55.25;;;29.98;;
55090;SDS011;40985;53.180;5.800;2024-01-11T04:54:14;55.47;;;30.20;;
55090;SDS011;40985;53.180;5.800;2024-01-11T04:56:40;58.00;;;30.45;;
55090;SDS011;40985;53.180;5.800;2024-01-11T04:59:05;53.20;;;29.00;;
55090;SDS011;40985;53.180;5.800;2024-01-11T05:01:31;51.92;;;28.80;;
55090;SDS011;40985;53.180;5.800;2024-01-11T05:03:57;50.20;;;29.27;;
55090;SDS011;40985;53.180;5.800;2024-01-11T05:06:22;51.90;;;29.90;;
55090;SDS011;40985;53.180;5.800;2024-01-11T05:08:50;54.13;;;29.83;;
55090;SDS011;40985;53.180;5.800;2024-01-11T05:11:23;51.15;;;28.88;;
55090;SDS011;40985;53.180;5.800;2024-01-11T05:13:50;52.55;;;28.88;;
55090;SDS011;40985;53.180;5.800;2024-01-11T05:16:23;50.75;;;29.13;;
55090;SDS011;40985;53.180;5.800;2024-01-11T05:18:50;55.88;;;30.50;;
55090;SDS011;40985;53.180;5.800;2024-01-11T05:21:16;52.58;;;29.80;;
55090;SDS011;40985;53.180;5.800;2024-01-11T05:23:42;54.30;;;30.40;;
55090;SDS011;40985;53.180;5.800;2024-01-11T05:26:08;54.47;;;30.42;;
55090;SDS011;40985;53.180;5.800;2024-01-11T05:28:34;49.72;;;29.58;;
55090;SDS011;40985;53.180;5.800;2024-01-11T05:31:00;52.25;;;29.55;;
55090;SDS011;40985;53.180;5.800;2024-01-11T05:33:26;53.42;;;29.98;;
55090;SDS011;40985;53.180;5.800;2024-01-11T05:35:52;52.22;;;30.45;;
55090;SDS011;40985;53.180;5.800;2024-01-11T05:38:19;51.22;;;29.33;;
55090;SDS011;40985;53.180;5.800;2024-01-11T05:40:45;51.85;;;30.38;;
55090;SDS011;40985;53.180;5.800;2024-01-11T05:43:10;52.55;;;29.38;;
55090;SDS011;40985;53.180;5.800;2024-01-11T05:45:36;50.80;;;30.30;;
55090;SDS011;40985;53.180;5.800;2024-01-11T05:48:02;52.45;;;29.60;;
55090;SDS011;40985;53.180;5.800;2024-01-11T05:50:28;47.13;;;28.65;;
55090;SDS011;40985;53.180;5.800;2024-01-11T05:52:53;47.78;;;28.15;;
55090;SDS011;40985;53.180;5.800;2024-01-11T05:55:21;48.03;;;28.65;;
55090;SDS011;40985;53.180;5.800;2024-01-11T05:57:46;45.05;;;27.08;;
55090;SDS011;40985;53.180;5.800;2024-01-11T06:00:12;46.85;;;28.00;;
55090;SDS011;40985;53.180;5.800;2024-01-11T06:02:39;47.33;;;28.45;;
55090;SDS011;40985;53.180;5.800;2024-01-11T06:05:08;44.95;;;27.70;;
55090;SDS011;40985;53.180;5.800;2024-01-11T06:07:34;50.67;;;28.88;;
55090;SDS011;40985;53.180;5.800;2024-01-11T06:10:00;48.83;;;29.38;;
55090;SDS011;40985;53.180;5.800;2024-01-11T06:12:28;47.30;;;27.67;;
55090;SDS011;40985;53.180;5.800;2024-01-11T06:14:54;45.58;;;28.90;;
55090;SDS011;40985;53.180;5.800;2024-01-11T06:17:19;45.20;;;27.30;;
55090;SDS011;40985;53.180;5.800;2024-01-11T06:19:45;46.55;;;28.27;;
55090;SDS011;40985;53.180;5.800;2024-01-11T06:22:11;54.47;;;30.48;;
55090;SDS011;40985;53.180;5.800;2024-01-11T06:24:37;49.85;;;28.25;;
55090;SDS011;40985;53.180;5.800;2024-01-11T06:27:02;46.03;;;27.67;;
55090;SDS011;40985;53.180;5.800;2024-01-11T06:29:28;45.70;;;28.77;;
55090;SDS011;40985;53.180;5.800;2024-01-11T06:31:54;48.80;;;29.73;;
55090;SDS011;40985;53.180;5.800;2024-01-11T06:34:19;46.75;;;27.60;;
55090;SDS011;40985;53.180;5.800;2024-01-11T06:36:45;45.78;;;28.58;;
55090;SDS011;40985;53.180;5.800;2024-01-11T06:39:11;47.10;;;29.55;;
55090;SDS011;40985;53.180;5.800;2024-01-11T06:41:37;45.85;;;28.80;;
55090;SDS011;40985;53.180;5.800;2024-01-11T06:44:03;51.88;;;30.58;;
55090;SDS011;40985;53.180;5.800;2024-01-11T06:46:29;49.17;;;29.17;;
55090;SDS011;40985;53.180;5.800;2024-01-11T06:48:55;49.22;;;29.45;;
55090;SDS011;40985;53.180;5.800;2024-01-11T06:51:21;52.50;;;30.85;;
55090;SDS011;40985;53.180;5.800;2024-01-11T06:53:48;47.78;;;29.40;;
55090;SDS011;40985;53.180;5.800;2024-01-11T06:56:20;48.35;;;29.70;;
55090;SDS011;40985;53.180;5.800;2024-01-11T06:58:46;51.40;;;32.00;;
55090;SDS011;40985;53.180;5.800;2024-01-11T07:01:12;49.83;;;30.58;;
55090;SDS011;40985;53.180;5.800;2024-01-11T07:03:38;46.80;;;30.30;;
55090;SDS011;40985;53.180;5.800;2024-01-11T07:06:05;52.33;;;30.65;;
55090;SDS011;40985;53.180;5.800;2024-01-11T07:08:31;63.95;;;31.30;;
55090;SDS011;40985;53.180;5.800;2024-01-11T07:11:00;49.03;;;30.48;;
55090;SDS011;40985;53.180;5.800;2024-01-11T07:13:27;49.70;;;29.73;;
55090;SDS011;40985;53.180;5.800;2024-01-11T07:15:54;48.60;;;30.45;;
55090;SDS011;40985;53.180;5.800;2024-01-11T07:18:20;47.88;;;29.50;;
55090;SDS011;40985;53.180;5.800;2024-01-11T07:20:46;48.92;;;30.85;;
55090;SDS011;40985;53.180;5.800;2024-01-11T07:23:13;49.22;;;28.75;;
55090;SDS011;40985;53.180;5.800;2024-01-11T07:25:39;48.05;;;31.08;;
55090;SDS011;40985;53.180;5.800;2024-01-11T07:28:06;45.72;;;29.63;;
55090;SDS011;40985;53.180;5.800;2024-01-11T07:30:32;47.60;;;30.95;;
55090;SDS011;40985;53.180;5.800;2024-01-11T07:32:58;50.65;;;31.40;;
55090;SDS011;40985;53.180;5.800;2024-01-11T07:35:24;50.88;;;30.13;;
55090;SDS011;40985;53.180;5.800;2024-01-11T07:37:49;46.40;;;29.70;;
55090;SDS011;40985;53.180;5.800;2024-01-11T07:40:15;49.33;;;31.10;;
55090;SDS011;40985;53.180;5.800;2024-01-11T07:42:41;48.88;;;30.23;;
55090;SDS011;40985;53.180;5.800;2024-01-11T07:45:08;50.55;;;31.10;;
55090;SDS011;40985;53.180;5.800;2024-01-11T07:47:37;50.17;;;30.63;;
55090;SDS011;40985;53.180;5.800;2024-01-11T07:50:04;50.50;;;31.38;;
55090;SDS011;40985;53.180;5.800;2024-01-11T07:52:32;46.17;;;30.10;;
55090;SDS011;40985;53.180;5.800;2024-01-11T07:54:58;54.05;;;32.33;;
55090;SDS011;40985;53.180;5.800;2024-01-11T07:57:31;52.13;;;31.52;;
55090;SDS011;40985;53.180;5.800;2024-01-11T07:59:58;47.67;;;30.63;;
55090;SDS011;40985;53.180;5.800;2024-01-11T08:02:28;49.53;;;31.65;;
55090;SDS011;40985;53.180;5.800;2024-01-11T08:04:53;47.90;;;30.27;;
55090;SDS011;40985;53.180;5.800;2024-01-11T08:07:19;47.60;;;31.13;;
55090;SDS011;40985;53.180;5.800;2024-01-11T08:09:45;48.33;;;31.00;;
55090;SDS011;40985;53.180;5.800;2024-01-11T08:12:11;47.95;;;31.58;;
55090;SDS011;40985;53.180;5.800;2024-01-11T08:14:38;47.42;;;30.50;;
55090;SDS011;40985;53.180;5.800;2024-01-11T08:17:04;51.47;;;31.48;;
55090;SDS011;40985;53.180;5.800;2024-01-11T08:19:30;54.30;;;31.75;;
55090;SDS011;40985;53.180;5.800;2024-01-11T08:21:57;49.45;;;31.27;;
55090;SDS011;40985;53.180;5.800;2024-01-11T08:24:23;51.75;;;33.33;;
55090;SDS011;40985;53.180;5.800;2024-01-11T08:26:50;50.30;;;32.17;;
55090;SDS011;40985;53.180;5.800;2024-01-11T08:29:16;48.33;;;31.30;;
55090;SDS011;40985;53.180;5.800;2024-01-11T08:31:44;49.75;;;31.38;;
55090;SDS011;40985;53.180;5.800;2024-01-11T08:34:10;52.72;;;32.90;;
55090;SDS011;40985;53.180;5.800;2024-01-11T08:36:36;50.35;;;31.90;;
55090;SDS011;40985;53.180;5.800;2024-01-11T08:39:03;50.72;;;33.22;;
55090;SDS011;40985;53.180;5.800;2024-01-11T08:41:36;52.50;;;32.95;;
55090;SDS011;40985;53.180;5.800;2024-01-11T08:44:03;52.08;;;32.10;;
55090;SDS011;40985;53.180;5.800;2024-01-11T08:46:31;52.00;;;32.33;;
55090;SDS011;40985;53.180;5.800;2024-01-11T08:48:58;53.80;;;33.50;;
55090;SDS011;40985;53.180;5.800;2024-01-11T08:51:30;52.88;;;32.97;;
55090;SDS011;40985;53.180;5.800;2024-01-11T08:53:57;47.95;;;31.65;;
55090;SDS011;40985;53.180;5.800;2024-01-11T08:56:23;52.58;;;31.23;;
55090;SDS011;40985;53.180;5.800;2024-01-11T08:58:49;50.55;;;32.03;;
55090;SDS011;40985;53.180;5.800;2024-01-11T09:01:15;48.50;;;31.60;;
55090;SDS011;40985;53.180;5.800;2024-01-11T09:03:41;48.95;;;31.30;;
55090;SDS011;40985;53.180;5.800;2024-01-11T09:06:06;48.67;;;31.00;;
55090;SDS011;40985;53.180;5.800;2024-01-11T09:08:32;49.20;;;30.98;;
55090;SDS011;40985;53.180;5.800;2024-01-11T09:10:59;50.85;;;31.92;;
55090;SDS011;40985;53.180;5.800;2024-01-11T09:13:25;52.15;;;32.08;;
55090;SDS011;40985;53.180;5.800;2024-01-11T09:15:52;49.90;;;31.90;;
55090;SDS011;40985;53.180;5.800;2024-01-11T09:18:19;49.05;;;31.02;;
55090;SDS011;40985;53.180;5.800;2024-01-11T09:20:45;47.08;;;31.30;;
55090;SDS011;40985;53.180;5.800;2024-01-11T09:23:12;50.78;;;31.10;;
55090;SDS011;40985;53.180;5.800;2024-01-11T09:25:38;50.13;;;32.50;;
55090;SDS011;40985;53.180;5.800;2024-01-11T09:28:04;49.25;;;30.27;;
55090;SDS011;40985;53.180;5.800;2024-01-11T09:30:29;47.05;;;30.60;;
55090;SDS011;40985;53.180;5.800;2024-01-11T09:32:55;48.97;;;31.05;;
55090;SDS011;40985;53.180;5.800;2024-01-11T09:35:24;47.33;;;30.60;;
55090;SDS011;40985;53.180;5.800;2024-01-11T09:37:50;49.67;;;30.10;;
55090;SDS011;40985;53.180;5.800;2024-01-11T09:40:17;52.92;;;32.03;;
55090;SDS011;40985;53.180;5.800;2024-01-11T09:42:43;48.95;;;30.70;;
55090;SDS011;40985;53.180;5.800;2024-01-11T09:45:10;43.33;;;29.33;;
55090;SDS011;40985;53.180;5.800;2024-01-11T09:47:38;42.55;;;29.27;;
55090;SDS011;40985;53.180;5.800;2024-01-11T09:50:05;47.58;;;30.25;;
55090;SDS011;40985;53.180;5.800;2024-01-11T09:52:32;42.30;;;27.77;;
55090;SDS011;40985;53.180;5.800;2024-01-11T09:55:01;41.25;;;27.80;;
55090;SDS011;40985;53.180;5.800;2024-01-11T09:57:30;44.63;;;28.95;;
55090;SDS011;40985;53.180;5.800;2024-01-11T10:00:00;40.95;;;27.05;;
55090;SDS011;40985;53.180;5.800;2024-01-11T10:02:32;41.38;;;27.10;;
55090;SDS011;40985;53.180;5.800;2024-01-11T10:04:58;42.50;;;27.08;;
55090;SDS011;40985;53.180;5.800;2024-01-11T10:07:24;39.75;;;26.70;;
55090;SDS011;40985;53.180;5.800;2024-01-11T10:09:50;38.92;;;26.20;;
55090;SDS011;40985;53.180;5.800;2024-01-11T10:12:20;39.33;;;25.92;;
55090;SDS011;40985;53.180;5.800;2024-01-11T10:14:48;40.30;;;27.43;;
55090;SDS011;40985;53.180;5.800;2024-01-11T10:17:14;36.97;;;24.90;;
55090;SDS011;40985;53.180;5.800;2024-01-11T10:19:39;37.38;;;25.65;;
55090;SDS011;40985;53.180;5.800;2024-01-11T10:22:05;41.03;;;26.02;;
55090;SDS011;40985;53.180;5.800;2024-01-11T10:24:32;39.55;;;25.17;;
55090;SDS011;40985;53.180;5.800;2024-01-11T10:26:58;38.17;;;25.65;;
55090;SDS011;40985;53.180;5.800;2024-01-11T10:29:32;38.42;;;25.52;;
55090;SDS011;40985;53.180;5.800;2024-01-11T10:31:58;38.03;;;24.48;;
55090;SDS011;40985;53.180;5.800;2024-01-11T10:34:24;34.95;;;23.95;;
55090;SDS011;40985;53.180;5.800;2024-01-11T10:36:50;35.28;;;23.45;;
55090;SDS011;40985;53.180;5.800;2024-01-11T10:39:16;34.60;;;23.10;;
55090;SDS011;40985;53.180;5.800;2024-01-11T10:41:45;38.28;;;24.73;;
55090;SDS011;40985;53.180;5.800;2024-01-11T10:44:19;37.30;;;25.08;;
55090;SDS011;40985;53.180;5.800;2024-01-11T10:46:47;36.22;;;24.60;;
55090;SDS011;40985;53.180;5.800;2024-01-11T10:49:20;38.97;;;25.00;;
55090;SDS011;40985;53.180;5.800;2024-01-11T10:51:56;36.38;;;24.80;;
55090;SDS011;40985;53.180;5.800;2024-01-11T10:54:24;35.15;;;23.35;;
55090;SDS011;40985;53.180;5.800;2024-01-11T10:56:53;35.58;;;23.05;;
55090;SDS011;40985;53.180;5.800;2024-01-11T10:59:20;31.13;;;21.65;;
55090;SDS011;40985;53.180;5.800;2024-01-11T11:01:52;35.70;;;22.98;;
55090;SDS011;40985;53.180;5.800;2024-01-11T11:04:23;31.42;;;21.33;;
55090;SDS011;40985;53.180;5.800;2024-01-11T11:06:56;34.42;;;21.77;;
55090;SDS011;40985;53.180;5.800;2024-01-11T11:09:23;34.15;;;23.10;;
55090;SDS011;40985;53.180;5.800;2024-01-11T11:11:50;33.85;;;22.45;;
55090;SDS011;40985;53.180;5.800;2024-01-11T11:14:21;35.40;;;22.95;;
55090;SDS011;40985;53.180;5.800;2024-01-11T11:16:47;33.95;;;21.55;;
55090;SDS011;40985;53.180;5.800;2024-01-11T11:19:14;28.60;;;20.15;;
55090;SDS011;40985;53.180;5.800;2024-01-11T11:21:43;29.83;;;19.83;;
55090;SDS011;40985;53.180;5.800;2024-01-11T11:26:39;29.08;;;18.48;;
55090;SDS011;40985;53.180;5.800;2024-01-11T11:29:04;33.40;;;18.45;;
55090;SDS011;40985;53.180;5.800;2024-01-11T11:34:03;25.70;;;17.80;;
55090;SDS011;40985;53.180;5.800;2024-01-11T11:36:30;29.70;;;17.98;;
55090;SDS011;40985;53.180;5.800;2024-01-11T11:38:59;29.90;;;17.30;;
55090;SDS011;40985;53.180;5.800;2024-01-11T11:41:26;26.85;;;17.20;;
55090;SDS011;40985;53.180;5.800;2024-01-11T11:43:52;26.52;;;16.27;;
55090;SDS011;40985;53.180;5.800;2024-01-11T11:46:21;26.88;;;16.52;;
55090;SDS011;40985;53.180;5.800;2024-01-11T11:48:47;27.40;;;15.80;;
55090;SDS011;40985;53.180;5.800;2024-01-11T11:51:20;25.55;;;15.18;;
55090;SDS011;40985;53.180;5.800;2024-01-11T11:53:49;20.83;;;13.48;;
55090;SDS011;40985;53.180;5.800;2024-01-11T11:56:19;22.50;;;13.52;;
55090;SDS011;40985;53.180;5.800;2024-01-11T11:58:47;23.15;;;12.93;;
55090;SDS011;40985;53.180;5.800;2024-01-11T12:01:15;22.73;;;13.70;;
55090;SDS011;40985;53.180;5.800;2024-01-11T12:03:42;25.95;;;13.50;;
55090;SDS011;40985;53.180;5.800;2024-01-11T12:06:14;20.95;;;11.93;;
55090;SDS011;40985;53.180;5.800;2024-01-11T12:08:41;18.30;;;11.32;;
55090;SDS011;40985;53.180;5.800;2024-01-11T12:11:08;16.17;;;11.75;;
55090;SDS011;40985;53.180;5.800;2024-01-11T12:13:34;24.45;;;13.85;;
55090;SDS011;40985;53.180;5.800;2024-01-11T12:16:01;21.30;;;13.90;;
55090;SDS011;40985;53.180;5.800;2024-01-11T12:18:27;22.58;;;13.55;;
55090;SDS011;40985;53.180;5.800;2024-01-11T12:20:52;23.58;;;13.25;;
55090;SDS011;40985;53.180;5.800;2024-01-11T12:23:18;21.92;;;12.77;;
55090;SDS011;40985;53.180;5.800;2024-01-11T12:25:44;19.40;;;10.75;;
55090;SDS011;40985;53.180;5.800;2024-01-11T12:28:10;20.10;;;11.68;;
55090;SDS011;40985;53.180;5.800;2024-01-11T12:30:36;18.92;;;10.57;;
55090;SDS011;40985;53.180;5.800;2024-01-11T12:33:03;17.65;;;8.65;;
55090;SDS011;40985;53.180;5.800;2024-01-11T12:35:30;22.75;;;9.25;;
55090;SDS011;40985;53.180;5.800;2024-01-11T12:38:00;17.08;;;8.18;;
55090;SDS011;40985;53.180;5.800;2024-01-11T12:40:34;18.90;;;8.30;;
55090;SDS011;40985;53.180;5.800;2024-01-11T12:43:04;16.05;;;8.73;;
55090;SDS011;40985;53.180;5.800;2024-01-11T12:45:31;17.70;;;8.77;;
55090;SDS011;40985;53.180;5.800;2024-01-11T12:48:00;20.33;;;8.07;;
55090;SDS011;40985;53.180;5.800;2024-01-11T12:50:28;19.30;;;8.95;;
55090;SDS011;40985;53.180;5.800;2024-01-11T12:53:14;21.65;;;9.18;;
55090;SDS011;40985;53.180;5.800;2024-01-11T12:55:44;19.80;;;9.18;;
55090;SDS011;40985;53.180;5.800;2024-01-11T12:58:13;19.98;;;8.75;;
55090;SDS011;40985;53.180;5.800;2024-01-11T13:00:45;25.50;;;8.70;;
55090;SDS011;40985;53.180;5.800;2024-01-11T13:03:11;21.92;;;8.52;;
55090;SDS011;40985;53.180;5.800;2024-01-11T13:05:37;27.00;;;5.70;;
55090;SDS011;40985;53.180;5.800;2024-01-11T13:08:03;31.60;;;6.35;;
55090;SDS011;40985;53.180;5.800;2024-01-11T13:10:33;28.00;;;6.40;;
55090;SDS011;40985;53.180;5.800;2024-01-11T13:13:01;26.40;;;5.35;;
55090;SDS011;40985;53.180;5.800;2024-01-11T13:15:27;29.70;;;4.53;;
55090;SDS011;40985;53.180;5.800;2024-01-11T13:17:54;21.13;;;4.10;;
55090;SDS011;40985;53.180;5.800;2024-01-11T13:20:21;43.80;;;4.93;;
55090;SDS011;40985;53.180;5.800;2024-01-11T13:22:48;29.50;;;4.60;;
55090;SDS011;40985;53.180;5.800;2024-01-11T13:25:14;35.50;;;5.32;;
55090;SDS011;40985;53.180;5.800;2024-01-11T13:27:40;39.53;;;4.50;;
55090;SDS011;40985;53.180;5.800;2024-01-11T13:30:06;24.85;;;2.75;;
55090;SDS011;40985;53.180;5.800;2024-01-11T13:32:33;40.25;;;4.53;;
55090;SDS011;40985;53.180;5.800;2024-01-11T13:34:59;32.35;;;4.53;;
55090;SDS011;40985;53.180;5.800;2024-01-11T13:37:25;36.40;;;4.60;;
55090;SDS011;40985;53.180;5.800;2024-01-11T13:39:51;39.33;;;4.05;;
55090;SDS011;40985;53.180;5.800;2024-01-11T13:42:17;46.08;;;4.95;;
55090;SDS011;40985;53.180;5.800;2024-01-11T13:44:42;30.50;;;3.92;;
55090;SDS011;40985;53.180;5.800;2024-01-11T13:47:08;43.35;;;4.60;;
55090;SDS011;40985;53.180;5.800;2024-01-11T13:49:34;43.53;;;5.20;;
55090;SDS011;40985;53.180;5.800;2024-01-11T13:51:59;35.95;;;3.70;;
55090;SDS011;40985;53.180;5.800;2024-01-11T13:54:25;36.28;;;4.55;;
55090;SDS011;40985;53.180;5.800;2024-01-11T13:56:51;37.58;;;4.28;;
55090;SDS011;40985;53.180;5.800;2024-01-11T13:59:17;35.38;;;3.63;;
55090;SDS011;40985;53.180;5.800;2024-01-11T14:01:43;41.10;;;4.43;;
55090;SDS011;40985;53.180;5.800;2024-01-11T14:04:09;46.53;;;4.32;;
55090;SDS011;40985;53.180;5.800;2024-01-11T14:06:34;36.15;;;3.92;;
55090;SDS011;40985;53.180;5.800;2024-01-11T14:09:00;38.67;;;4.95;;
55090;SDS011;40985;53.180;5.800;2024-01-11T14:11:28;30.77;;;3.88;;
55090;SDS011;40985;53.180;5.800;2024-01-11T14:13:54;34.45;;;3.60;;
55090;SDS011;40985;53.180;5.800;2024-01-11T14:16:20;30.45;;;3.85;;
55090;SDS011;40985;53.180;5.800;2024-01-11T14:18:46;40.50;;;4.55;;
55090;SDS011;40985;53.180;5.800;2024-01-11T14:21:12;39.20;;;4.78;;
55090;SDS011;40985;53.180;5.800;2024-01-11T14:23:38;43.45;;;4.90;;
55090;SDS011;40985;53.180;5.800;2024-01-11T14:26:03;45.22;;;5.10;;